sensor_id;sensor_type;location;lat;lon;timestamp;pressure;altitude;pressure_sealevel;temperature;humidity
50484;BME280;36409;52.168;20.878;2023-05-08T00:01:30;101849.61;;;1.34;65.61
50484;BME280;36409;52.168;20.878;2023-05-08T00:04:02;101852.83;;;1.30;66.13
50484;BME280;36409;52.168;20.878;2023-05-08T00:06:31;101855.34;;;1.28;65.93
50484;BME280;36409;52.168;20.878;2023-05-08T00:09:02;101855.28;;;1.27;66.74
50484;BME280;36409;52.168;20.878;2023-05-08T00:11:34;101850.05;;;1.25;66.47
50484;BME280;36409;52.168;20.878;2023-05-08T00:14:03;101857.70;;;1.23;66.08
50484;BME280;36409;52.168;20.878;2023-05-08T00:16:34;101851.53;;;1.20;66.36
50484;BME280;36409;52.168;20.878;2023-05-08T00:19:03;101850.51;;;1.16;65.86
50484;BME280;36409;52.168;20.878;2023-05-08T00:21:34;101852.92;;;1.13;66.99
50484;BME280;36409;52.168;20.878;2023-05-08T00:24:05;101859.74;;;1.13;65.95
50484;BME280;36409;52.168;20.878;2023-05-08T00:26:34;101854.59;;;1.13;65.89
50484;BME280;36409;52.168;20.878;2023-05-08T00:29:03;101863.22;;;1.13;66.98
50484;BME280;36409;52.168;20.878;2023-05-08T00:31:35;101861.52;;;1.14;66.70
50484;BME280;36409;52.168;20.878;2023-05-08T00:34:03;101862.31;;;1.13;66.23
50484;BME280;36409;52.168;20.878;2023-05-08T00:36:40;101858.72;;;1.09;66.07
50484;BME280;36409;52.168;20.878;2023-05-08T00:39:09;101869.75;;;1.06;66.55
50484;BME280;36409;52.168;20.878;2023-05-08T00:41:38;101864.61;;;1.06;66.53
50484;BME280;36409;52.168;20.878;2023-05-08T00:44:07;101874.09;;;1.07;66.99
50484;BME280;36409;52.168;20.878;2023-05-08T00:46:37;101867.98;;;1.05;67.00
50484;BME280;36409;52.168;20.878;2023-05-08T00:49:06;101867.83;;;1.02;66.28
50484;BME280;36409;52.168;20.878;2023-05-08T00:51:38;101874.61;;;1.00;66.66
50484;BME280;36409;52.168;20.878;2023-05-08T00:54:08;101879.66;;;0.99;67.23
50484;BME280;36409;52.168;20.878;2023-05-08T00:56:38;101882.16;;;0.97;66.59
50484;BME280;36409;52.168;20.878;2023-05-08T00:59:12;101884.67;;;0.96;66.87
50484;BME280;36409;52.168;20.878;2023-05-08T01:01:43;101884.58;;;0.94;66.62
50484;BME280;36409;52.168;20.878;2023-05-08T01:04:13;101891.33;;;0.92;66.57
50484;BME280;36409;52.168;20.878;2023-05-08T01:06:43;101894.63;;;0.89;67.30
50484;BME280;36409;52.168;20.878;2023-05-08T01:09:13;101884.92;;;0.84;66.38
50484;BME280;36409;52.168;20.878;2023-05-08T01:11:48;101892.34;;;0.78;66.49
50484;BME280;36409;52.168;20.878;2023-05-08T01:14:27;101894.69;;;0.73;67.12
50484;BME280;36409;52.168;20.878;2023-05-08T01:17:08;101894.43;;;0.68;66.84
50484;BME280;36409;52.168;20.878;2023-05-08T01:19:55;101905.38;;;0.64;66.52
50484;BME280;36409;52.168;20.878;2023-05-08T01:22:58;101903.55;;;0.61;67.13
50484;BME280;36409;52.168;20.878;2023-05-08T01:25:59;101904.25;;;0.59;67.00
50484;BME280;36409;52.168;20.878;2023-05-08T01:34:23;101904.25;;;0.59;67.31
50484;BME280;36409;52.168;20.878;2023-05-08T01:37:01;101906.81;;;0.59;67.68
50484;BME280;36409;52.168;20.878;2023-05-08T01:39:37;101913.66;;;0.58;67.78
50484;BME280;36409;52.168;20.878;2023-05-08T01:42:17;101910.98;;;0.57;67.84
50484;BME280;36409;52.168;20.878;2023-05-08T01:44:53;101910.19;;;0.58;67.87
50484;BME280;36409;52.168;20.878;2023-05-08T01:47:27;101913.66;;;0.58;67.38
50484;BME280;36409;52.168;20.878;2023-05-08T01:50:03;101911.09;;;0.58;67.39
50484;BME280;36409;52.168;20.878;2023-05-08T01:52:42;101911.89;;;0.57;67.63
50484;BME280;36409;52.168;20.878;2023-05-08T01:55:16;101914.29;;;0.54;67.55
50484;BME280;36409;52.168;20.878;2023-05-08T01:57:51;101914.23;;;0.53;67.47
50484;BME280;36409;52.168;20.878;2023-05-08T02:00:23;101918.39;;;0.51;67.83
50484;BME280;36409;52.168;20.878;2023-05-08T02:02:56;101924.41;;;0.51;67.33
50484;BME280;36409;52.168;20.878;2023-05-08T02:05:30;101913.26;;;0.51;68.01
50484;BME280;36409;52.168;20.878;2023-05-08T02:08:03;101919.13;;;0.48;67.71
50484;BME280;36409;52.168;20.878;2023-05-08T02:10:34;101920.73;;;0.46;68.12
50484;BME280;36409;52.168;20.878;2023-05-08T02:13:05;101924.91;;;0.44;67.33
50484;BME280;36409;52.168;20.878;2023-05-08T02:15:36;101919.52;;;0.39;68.02
50484;BME280;36409;52.168;20.878;2023-05-08T02:18:08;101922.96;;;0.40;68.10
50484;BME280;36409;52.168;20.878;2023-05-08T02:20:41;101928.94;;;0.39;67.94
50484;BME280;36409;52.168;20.878;2023-05-08T02:23:11;101926.44;;;0.40;68.13
50484;BME280;36409;52.168;20.878;2023-05-08T02:25:43;101926.44;;;0.40;68.10
50484;BME280;36409;52.168;20.878;2023-05-08T02:28:14;101927.30;;;0.41;67.60
50484;BME280;36409;52.168;20.878;2023-05-08T02:30:47;101923.06;;;0.41;67.92
50484;BME280;36409;52.168;20.878;2023-05-08T02:33:18;101922.16;;;0.41;68.08
50484;BME280;36409;52.168;20.878;2023-05-08T02:35:49;101916.16;;;0.40;67.57
50484;BME280;36409;52.168;20.878;2023-05-08T02:38:21;101927.23;;;0.39;68.44
50484;BME280;36409;52.168;20.878;2023-05-08T02:41:02;101926.37;;;0.39;67.90
50484;BME280;36409;52.168;20.878;2023-05-08T02:43:34;101920.26;;;0.37;68.36
50484;BME280;36409;52.168;20.878;2023-05-08T02:46:12;101921.05;;;0.36;68.30
50484;BME280;36409;52.168;20.878;2023-05-08T02:48:53;101926.27;;;0.37;67.62
50484;BME280;36409;52.168;20.878;2023-05-08T02:51:27;101923.69;;;0.37;68.05
50484;BME280;36409;52.168;20.878;2023-05-08T02:54:06;101924.50;;;0.36;68.44
50484;BME280;36409;52.168;20.878;2023-05-08T02:56:43;101922.83;;;0.37;68.05
50484;BME280;36409;52.168;20.878;2023-05-08T02:59:19;101930.44;;;0.35;68.26
50484;BME280;36409;52.168;20.878;2023-05-08T03:01:59;101927.80;;;0.34;68.35
50484;BME280;36409;52.168;20.878;2023-05-08T03:04:41;101935.57;;;0.35;68.20
50484;BME280;36409;52.168;20.878;2023-05-08T03:07:16;101931.16;;;0.33;68.28
50484;BME280;36409;52.168;20.878;2023-05-08T03:09:54;101929.49;;;0.33;68.24
50484;BME280;36409;52.168;20.878;2023-05-08T03:12:26;101936.13;;;0.29;68.14
50484;BME280;36409;52.168;20.878;2023-05-08T03:15:08;101940.23;;;0.26;68.04
50484;BME280;36409;52.168;20.878;2023-05-08T03:17:44;101942.80;;;0.26;67.95
50484;BME280;36409;52.168;20.878;2023-05-08T03:20:16;101937.66;;;0.26;68.44
50484;BME280;36409;52.168;20.878;2023-05-08T03:22:48;101940.33;;;0.27;68.05
50484;BME280;36409;52.168;20.878;2023-05-08T03:25:20;101941.03;;;0.25;68.34
50484;BME280;36409;52.168;20.878;2023-05-08T03:27:54;101945.13;;;0.21;68.41
50484;BME280;36409;52.168;20.878;2023-05-08T03:30:26;101956.30;;;0.22;68.55
50484;BME280;36409;52.168;20.878;2023-05-08T03:33:04;101952.83;;;0.21;68.39
50484;BME280;36409;52.168;20.878;2023-05-08T03:35:36;101950.27;;;0.21;68.76
50484;BME280;36409;52.168;20.878;2023-05-08T03:38:08;101952.03;;;0.22;67.78
50484;BME280;36409;52.168;20.878;2023-05-08T03:40:38;101958.94;;;0.23;67.90
50484;BME280;36409;52.168;20.878;2023-05-08T03:43:11;101956.37;;;0.23;68.43
50484;BME280;36409;52.168;20.878;2023-05-08T03:45:40;101954.84;;;0.27;68.36
50484;BME280;36409;52.168;20.878;2023-05-08T03:48:13;101950.05;;;0.33;68.64
50484;BME280;36409;52.168;20.878;2023-05-08T03:50:44;101948.66;;;0.40;68.26
50484;BME280;36409;52.168;20.878;2023-05-08T03:53:18;101949.73;;;0.43;68.47
50484;BME280;36409;52.168;20.878;2023-05-08T03:55:48;101948.27;;;0.49;68.29
50484;BME280;36409;52.168;20.878;2023-05-08T03:58:22;101950.27;;;0.54;68.99
50484;BME280;36409;52.168;20.878;2023-05-08T04:01:03;101950.61;;;0.60;68.43
50484;BME280;36409;52.168;20.878;2023-05-08T04:03:48;101950.98;;;0.68;68.42
50484;BME280;36409;52.168;20.878;2023-05-08T04:06:27;101952.51;;;0.81;69.13
50484;BME280;36409;52.168;20.878;2023-05-08T04:09:16;101963.38;;;1.10;68.83
50484;BME280;36409;52.168;20.878;2023-05-08T04:11:54;101956.05;;;2.08;68.55
50484;BME280;36409;52.168;20.878;2023-05-08T04:14:37;101953.27;;;3.67;68.48
50484;BME280;36409;52.168;20.878;2023-05-08T04:17:20;101959.07;;;6.12;68.01
50484;BME280;36409;52.168;20.878;2023-05-08T04:20:01;101958.53;;;8.36;67.53
50484;BME280;36409;52.168;20.878;2023-05-08T04:22:33;101957.53;;;10.41;67.00
50484;BME280;36409;52.168;20.878;2023-05-08T04:25:06;101954.56;;;12.08;65.23
50484;BME280;36409;52.168;20.878;2023-05-08T04:27:38;101957.47;;;13.56;64.05
50484;BME280;36409;52.168;20.878;2023-05-08T04:30:11;101955.13;;;14.95;63.13
50484;BME280;36409;52.168;20.878;2023-05-08T04:32:45;101953.02;;;16.23;61.52
50484;BME280;36409;52.168;20.878;2023-05-08T04:35:16;101959.22;;;17.39;60.21
50484;BME280;36409;52.168;20.878;2023-05-08T04:37:47;101966.16;;;17.45;60.11
50484;BME280;36409;52.168;20.878;2023-05-08T04:40:17;101965.50;;;16.74;59.95
50484;BME280;36409;52.168;20.878;2023-05-08T04:42:47;101964.55;;;16.78;59.70
50484;BME280;36409;52.168;20.878;2023-05-08T04:45:19;101970.55;;;16.26;59.19
50484;BME280;36409;52.168;20.878;2023-05-08T04:47:51;101965.21;;;17.49;57.17
50484;BME280;36409;52.168;20.878;2023-05-08T04:50:22;101965.79;;;18.94;56.68
50484;BME280;36409;52.168;20.878;2023-05-08T04:52:52;101965.68;;;20.31;56.38
50484;BME280;36409;52.168;20.878;2023-05-08T04:55:24;101972.98;;;21.36;54.77
50484;BME280;36409;52.168;20.878;2023-05-08T04:57:53;101975.56;;;22.37;53.08
50484;BME280;36409;52.168;20.878;2023-05-08T05:00:25;101969.80;;;23.37;52.96
50484;BME280;36409;52.168;20.878;2023-05-08T05:02:55;101966.12;;;24.21;51.67
50484;BME280;36409;52.168;20.878;2023-05-08T05:05:27;101973.02;;;25.00;49.81
50484;BME280;36409;52.168;20.878;2023-05-08T05:07:56;101971.80;;;25.60;48.91
50484;BME280;36409;52.168;20.878;2023-05-08T05:10:26;101980.48;;;26.15;47.49
50484;BME280;36409;52.168;20.878;2023-05-08T05:12:55;101985.78;;;26.32;45.90
50484;BME280;36409;52.168;20.878;2023-05-08T05:15:26;101978.94;;;26.75;45.27
50484;BME280;36409;52.168;20.878;2023-05-08T05:17:55;101975.87;;;27.13;44.37
50484;BME280;36409;52.168;20.878;2023-05-08T05:20:25;101983.29;;;27.69;44.11
50484;BME280;36409;52.168;20.878;2023-05-08T05:22:54;101978.71;;;28.14;42.21
50484;BME280;36409;52.168;20.878;2023-05-08T05:25:25;101977.49;;;28.47;42.56
50484;BME280;36409;52.168;20.878;2023-05-08T05:27:55;101985.00;;;28.97;41.80
50484;BME280;36409;52.168;20.878;2023-05-08T05:30:24;101985.05;;;28.82;41.38
50484;BME280;36409;52.168;20.878;2023-05-08T05:32:55;101984.82;;;27.42;42.32
50484;BME280;36409;52.168;20.878;2023-05-08T05:35:25;101987.97;;;25.74;41.61
50484;BME280;36409;52.168;20.878;2023-05-08T05:37:56;101991.05;;;24.20;41.53
50484;BME280;36409;52.168;20.878;2023-05-08T05:40:26;101989.11;;;24.81;40.46
50484;BME280;36409;52.168;20.878;2023-05-08T05:42:55;101996.63;;;25.96;39.79
50484;BME280;36409;52.168;20.878;2023-05-08T05:45:28;101995.00;;;26.75;38.99
50484;BME280;36409;52.168;20.878;2023-05-08T05:48:01;101991.59;;;27.50;37.45
50484;BME280;36409;52.168;20.878;2023-05-08T05:50:30;101991.61;;;27.79;36.45
50484;BME280;36409;52.168;20.878;2023-05-08T05:53:00;101991.90;;;28.32;37.20
50484;BME280;36409;52.168;20.878;2023-05-08T05:55:29;101996.39;;;27.88;36.89
50484;BME280;36409;52.168;20.878;2023-05-08T05:57:59;101992.53;;;27.18;36.94
50484;BME280;36409;52.168;20.878;2023-05-08T06:00:29;102001.12;;;25.44;37.35
50484;BME280;36409;52.168;20.878;2023-05-08T06:03:04;101999.11;;;23.99;37.02
50484;BME280;36409;52.168;20.878;2023-05-08T06:05:35;102004.27;;;22.75;37.96
50484;BME280;36409;52.168;20.878;2023-05-08T06:08:04;102010.58;;;22.01;38.58
50484;BME280;36409;52.168;20.878;2023-05-08T06:10:34;102004.92;;;21.06;39.45
50484;BME280;36409;52.168;20.878;2023-05-08T06:13:03;102007.42;;;19.93;39.01
50484;BME280;36409;52.168;20.878;2023-05-08T06:15:34;102018.68;;;18.92;39.84
50484;BME280;36409;52.168;20.878;2023-05-08T06:18:04;102010.75;;;18.53;39.80
50484;BME280;36409;52.168;20.878;2023-05-08T06:20:36;102017.41;;;18.71;39.11
50484;BME280;36409;52.168;20.878;2023-05-08T06:23:06;102023.78;;;18.18;40.02
50484;BME280;36409;52.168;20.878;2023-05-08T06:25:35;102014.17;;;17.66;40.39
50484;BME280;36409;52.168;20.878;2023-05-08T06:28:05;102012.46;;;17.10;40.50
50484;BME280;36409;52.168;20.878;2023-05-08T06:30:36;102009.88;;;16.41;40.91
50484;BME280;36409;52.168;20.878;2023-05-08T06:33:07;102013.95;;;15.90;41.68
50484;BME280;36409;52.168;20.878;2023-05-08T06:35:37;102016.20;;;15.34;41.92
50484;BME280;36409;52.168;20.878;2023-05-08T06:38:06;102024.42;;;14.81;41.76
50484;BME280;36409;52.168;20.878;2023-05-08T06:40:35;102027.25;;;14.33;42.33
50484;BME280;36409;52.168;20.878;2023-05-08T06:43:04;102022.08;;;14.04;42.69
50484;BME280;36409;52.168;20.878;2023-05-08T06:45:35;102021.27;;;13.74;42.87
50484;BME280;36409;52.168;20.878;2023-05-08T06:48:07;102023.02;;;13.47;42.98
50484;BME280;36409;52.168;20.878;2023-05-08T06:50:38;102020.37;;;13.38;43.69
50484;BME280;36409;52.168;20.878;2023-05-08T06:53:08;102019.53;;;13.48;43.28
50484;BME280;36409;52.168;20.878;2023-05-08T06:55:37;102014.28;;;13.40;42.80
50484;BME280;36409;52.168;20.878;2023-05-08T06:58:06;102015.99;;;13.18;43.76
50484;BME280;36409;52.168;20.878;2023-05-08T07:00:35;102023.82;;;12.92;43.94
50484;BME280;36409;52.168;20.878;2023-05-08T07:03:04;102022.87;;;12.74;43.50
50484;BME280;36409;52.168;20.878;2023-05-08T07:05:34;102023.77;;;12.81;43.48
50484;BME280;36409;52.168;20.878;2023-05-08T07:08:04;102019.41;;;12.80;44.42
50484;BME280;36409;52.168;20.878;2023-05-08T07:10:34;102015.94;;;12.84;43.40
50484;BME280;36409;52.168;20.878;2023-05-08T07:13:02;102019.41;;;12.78;43.43
50484;BME280;36409;52.168;20.878;2023-05-08T07:15:34;102020.34;;;13.13;43.23
50484;BME280;36409;52.168;20.878;2023-05-08T07:18:03;102017.73;;;13.21;43.69
50484;BME280;36409;52.168;20.878;2023-05-08T07:20:35;102027.33;;;13.09;43.62
50484;BME280;36409;52.168;20.878;2023-05-08T07:23:04;102035.20;;;13.09;43.84
50484;BME280;36409;52.168;20.878;2023-05-08T07:25:34;102030.84;;;13.21;43.76
50484;BME280;36409;52.168;20.878;2023-05-08T07:28:04;102020.37;;;13.24;44.36
50484;BME280;36409;52.168;20.878;2023-05-08T07:30:33;102029.95;;;13.14;43.98
50484;BME280;36409;52.168;20.878;2023-05-08T07:33:03;102033.47;;;13.15;43.88
50484;BME280;36409;52.168;20.878;2023-05-08T07:35:37;102022.12;;;13.25;45.05
50484;BME280;36409;52.168;20.878;2023-05-08T07:38:06;102022.12;;;13.20;44.24
50484;BME280;36409;52.168;20.878;2023-05-08T07:40:35;102032.59;;;13.31;44.66
50484;BME280;36409;52.168;20.878;2023-05-08T07:43:04;102030.02;;;13.43;43.88
50484;BME280;36409;52.168;20.878;2023-05-08T07:45:35;102030.91;;;13.44;44.14
50484;BME280;36409;52.168;20.878;2023-05-08T07:48:04;102026.50;;;13.35;44.09
50484;BME280;36409;52.168;20.878;2023-05-08T07:50:34;102016.86;;;13.23;44.14
50484;BME280;36409;52.168;20.878;2023-05-08T07:53:04;102026.48;;;13.18;45.17
50484;BME280;36409;52.168;20.878;2023-05-08T07:55:34;102031.73;;;13.27;44.24
50484;BME280;36409;52.168;20.878;2023-05-08T07:58:02;102014.24;;;13.22;45.07
50484;BME280;36409;52.168;20.878;2023-05-08T08:00:34;102025.58;;;13.08;44.12
50484;BME280;36409;52.168;20.878;2023-05-08T08:03:03;102025.58;;;13.08;45.05
50484;BME280;36409;52.168;20.878;2023-05-08T08:05:35;102028.21;;;13.07;44.44
50484;BME280;36409;52.168;20.878;2023-05-08T08:08:04;102026.47;;;13.10;44.91
50484;BME280;36409;52.168;20.878;2023-05-08T08:10:35;102020.37;;;13.22;45.25
50484;BME280;36409;52.168;20.878;2023-05-08T08:13:05;102023.88;;;13.31;44.89
50484;BME280;36409;52.168;20.878;2023-05-08T08:15:35;102029.98;;;13.25;44.77
50484;BME280;36409;52.168;20.878;2023-05-08T08:18:04;102016.85;;;13.19;45.22
50484;BME280;36409;52.168;20.878;2023-05-08T08:20:34;102022.11;;;13.22;45.36
50484;BME280;36409;52.168;20.878;2023-05-08T08:23:03;102022.97;;;13.02;44.88
50484;BME280;36409;52.168;20.878;2023-05-08T08:25:34;102012.44;;;12.91;44.75
50484;BME280;36409;52.168;20.878;2023-05-08T08:28:04;102001.12;;;13.03;45.85
50484;BME280;36409;52.168;20.878;2023-05-08T08:30:34;102010.74;;;13.24;45.34
50484;BME280;36409;52.168;20.878;2023-05-08T08:33:03;102009.02;;;13.33;46.01
50484;BME280;36409;52.168;20.878;2023-05-08T08:35:34;102013.41;;;13.41;46.38
50484;BME280;36409;52.168;20.878;2023-05-08T08:38:04;102009.91;;;13.47;45.40
50484;BME280;36409;52.168;20.878;2023-05-08T08:40:38;102001.16;;;13.61;45.97
50484;BME280;36409;52.168;20.878;2023-05-08T08:43:08;101997.63;;;13.86;45.86
50484;BME280;36409;52.168;20.878;2023-05-08T08:45:38;101992.27;;;14.19;45.26
50484;BME280;36409;52.168;20.878;2023-05-08T08:48:09;101991.30;;;14.48;45.74
50484;BME280;36409;52.168;20.878;2023-05-08T08:50:42;101978.95;;;14.69;44.79
50484;BME280;36409;52.168;20.878;2023-05-08T08:53:20;101997.19;;;14.95;44.91
50484;BME280;36409;52.168;20.878;2023-05-08T08:55:51;101983.66;;;15.43;45.16
50484;BME280;36409;52.168;20.878;2023-05-08T08:58:26;101985.00;;;15.92;44.35
50484;BME280;36409;52.168;20.878;2023-05-08T09:01:03;101986.86;;;16.54;43.98
50484;BME280;36409;52.168;20.878;2023-05-08T09:03:35;101979.21;;;17.00;43.44
50484;BME280;36409;52.168;20.878;2023-05-08T09:06:05;101975.17;;;17.33;43.07
50484;BME280;36409;52.168;20.878;2023-05-08T09:08:35;101987.71;;;17.17;42.25
50484;BME280;36409;52.168;20.878;2023-05-08T09:11:06;101989.05;;;16.87;42.16
50484;BME280;36409;52.168;20.878;2023-05-08T09:13:35;101984.16;;;16.60;41.96
50484;BME280;36409;52.168;20.878;2023-05-08T09:16:05;101982.22;;;16.73;41.84
50484;BME280;36409;52.168;20.878;2023-05-08T09:18:34;101973.27;;;17.40;42.22
50484;BME280;36409;52.168;20.878;2023-05-08T09:21:08;101974.97;;;17.91;42.13
50484;BME280;36409;52.168;20.878;2023-05-08T09:23:37;101975.23;;;17.79;41.75
50484;BME280;36409;52.168;20.878;2023-05-08T09:26:29;101974.88;;;17.50;41.58
50484;BME280;36409;52.168;20.878;2023-05-08T09:29:11;101975.75;;;17.98;41.77
50484;BME280;36409;52.168;20.878;2023-05-08T09:31:42;101977.50;;;17.99;40.79
50484;BME280;36409;52.168;20.878;2023-05-08T09:34:21;101975.11;;;17.85;41.07
50484;BME280;36409;52.168;20.878;2023-05-08T09:36:51;101976.70;;;17.45;40.88
50484;BME280;36409;52.168;20.878;2023-05-08T09:39:22;101971.14;;;17.10;40.22
50484;BME280;36409;52.168;20.878;2023-05-08T09:41:59;101974.12;;;16.86;40.58
50484;BME280;36409;52.168;20.878;2023-05-08T09:44:43;101976.25;;;16.60;40.85
50484;BME280;36409;52.168;20.878;2023-05-08T09:47:13;101970.30;;;16.46;41.02
50484;BME280;36409;52.168;20.878;2023-05-08T09:49:57;101964.79;;;16.61;40.78
50484;BME280;36409;52.168;20.878;2023-05-08T09:52:26;101967.84;;;16.93;40.41
50484;BME280;36409;52.168;20.878;2023-05-08T09:54:59;101961.05;;;17.34;40.77
50484;BME280;36409;52.168;20.878;2023-05-08T09:57:30;101964.78;;;17.22;40.48
50484;BME280;36409;52.168;20.878;2023-05-08T10:00:11;101958.92;;;17.03;40.28
50484;BME280;36409;52.168;20.878;2023-05-08T10:02:53;101967.11;;;16.85;40.02
50484;BME280;36409;52.168;20.878;2023-05-08T10:05:25;101955.52;;;16.98;39.76
50484;BME280;36409;52.168;20.878;2023-05-08T10:07:55;101945.70;;;17.06;40.24
50484;BME280;36409;52.168;20.878;2023-05-08T10:10:25;101949.58;;;16.82;40.03
50484;BME280;36409;52.168;20.878;2023-05-08T10:12:55;101947.43;;;16.48;39.83
50484;BME280;36409;52.168;20.878;2023-05-08T10:15:28;101946.70;;;16.35;40.03
50484;BME280;36409;52.168;20.878;2023-05-08T10:18:03;101954.67;;;16.32;39.59
50484;BME280;36409;52.168;20.878;2023-05-08T10:20:38;101946.34;;;16.63;39.41
50484;BME280;36409;52.168;20.878;2023-05-08T10:23:09;101940.38;;;17.09;39.30
50484;BME280;36409;52.168;20.878;2023-05-08T10:25:43;101936.36;;;17.38;39.57
50484;BME280;36409;52.168;20.878;2023-05-08T10:28:17;101933.62;;;17.43;39.54
50484;BME280;36409;52.168;20.878;2023-05-08T10:30:55;101932.77;;;17.42;39.30
50484;BME280;36409;52.168;20.878;2023-05-08T10:33:30;101939.93;;;17.36;38.74
50484;BME280;36409;52.168;20.878;2023-05-08T10:36:01;101935.15;;;17.06;38.45
50484;BME280;36409;52.168;20.878;2023-05-08T10:38:34;101928.67;;;16.70;38.53
50484;BME280;36409;52.168;20.878;2023-05-08T10:41:07;101926.17;;;16.59;38.28
50484;BME280;36409;52.168;20.878;2023-05-08T10:43:41;101928.92;;;16.51;38.51
50484;BME280;36409;52.168;20.878;2023-05-08T10:46:15;101928.41;;;16.87;38.51
50484;BME280;36409;52.168;20.878;2023-05-08T10:48:57;101939.77;;;16.90;38.62
50484;BME280;36409;52.168;20.878;2023-05-08T10:51:39;101925.03;;;16.77;38.39
50484;BME280;36409;52.168;20.878;2023-05-08T10:54:12;101924.55;;;17.09;38.76
50484;BME280;36409;52.168;20.878;2023-05-08T10:56:42;101929.88;;;17.06;38.38
50484;BME280;36409;52.168;20.878;2023-05-08T10:59:18;101932.75;;;16.89;38.08
50484;BME280;36409;52.168;20.878;2023-05-08T11:01:48;101929.48;;;16.73;38.42
50484;BME280;36409;52.168;20.878;2023-05-08T11:04:21;101926.14;;;16.62;38.25
50484;BME280;36409;52.168;20.878;2023-05-08T11:06:51;101925.77;;;16.87;37.87
50484;BME280;36409;52.168;20.878;2023-05-08T11:09:26;101916.31;;;17.28;38.41
50484;BME280;36409;52.168;20.878;2023-05-08T11:12:20;101913.66;;;17.77;38.39
50484;BME280;36409;52.168;20.878;2023-05-08T11:14:56;101906.62;;;18.19;38.12
50484;BME280;36409;52.168;20.878;2023-05-08T11:17:27;101891.72;;;18.56;38.08
50484;BME280;36409;52.168;20.878;2023-05-08T11:19:58;101903.36;;;18.85;37.67
50484;BME280;36409;52.168;20.878;2023-05-08T11:22:29;101897.23;;;19.19;37.44
50484;BME280;36409;52.168;20.878;2023-05-08T11:25:04;101896.38;;;19.52;37.67
50484;BME280;36409;52.168;20.878;2023-05-08T11:30:52;101885.66;;;19.88;37.15
50484;BME280;36409;52.168;20.878;2023-05-08T11:33:25;101888.90;;;19.66;36.64
50484;BME280;36409;52.168;20.878;2023-05-08T11:36:07;101888.13;;;19.63;36.17
50484;BME280;36409;52.168;20.878;2023-05-08T11:38:41;101882.83;;;19.63;35.65
50484;BME280;36409;52.168;20.878;2023-05-08T11:41:20;101879.83;;;19.75;35.91
50484;BME280;36409;52.168;20.878;2023-05-08T11:46:48;101886.33;;;19.96;35.82
50484;BME280;36409;52.168;20.878;2023-05-08T11:49:20;101893.65;;;20.16;36.02
50484;BME280;36409;52.168;20.878;2023-05-08T11:51:58;101879.69;;;20.11;35.38
50484;BME280;36409;52.168;20.878;2023-05-08T11:54:30;101879.63;;;20.13;35.04
50484;BME280;36409;52.168;20.878;2023-05-08T11:57:04;101883.34;;;20.07;35.54
50484;BME280;36409;52.168;20.878;2023-05-08T11:59:35;101882.77;;;19.97;34.96
50484;BME280;36409;52.168;20.878;2023-05-08T12:02:05;101881.96;;;19.94;34.86
50484;BME280;36409;52.168;20.878;2023-05-08T12:04:44;101880.44;;;19.85;34.51
50484;BME280;36409;52.168;20.878;2023-05-08T12:07:15;101870.89;;;19.79;34.81
50484;BME280;36409;52.168;20.878;2023-05-08T12:09:45;101878.23;;;19.69;34.81
50484;BME280;36409;52.168;20.878;2023-05-08T12:12:15;101871.97;;;19.72;34.62
50484;BME280;36409;52.168;20.878;2023-05-08T12:14:49;101869.16;;;19.78;34.76
50484;BME280;36409;52.168;20.878;2023-05-08T12:17:18;101864.20;;;19.66;34.65
50484;BME280;36409;52.168;20.878;2023-05-08T12:19:47;101867.91;;;19.60;34.01
50484;BME280;36409;52.168;20.878;2023-05-08T12:22:22;101861.85;;;19.55;34.43
50484;BME280;36409;52.168;20.878;2023-05-08T12:24:51;101863.22;;;19.70;34.83
50484;BME280;36409;52.168;20.878;2023-05-08T12:27:20;101865.21;;;19.93;34.51
50484;BME280;36409;52.168;20.878;2023-05-08T12:29:49;101861.70;;;19.93;34.08
50484;BME280;36409;52.168;20.878;2023-05-08T12:32:19;101854.47;;;19.66;34.26
50484;BME280;36409;52.168;20.878;2023-05-08T12:34:49;101850.27;;;19.59;34.45
50484;BME280;36409;52.168;20.878;2023-05-08T12:37:25;101860.73;;;19.64;34.40
50484;BME280;36409;52.168;20.878;2023-05-08T12:39:54;101852.28;;;19.51;34.42
50484;BME280;36409;52.168;20.878;2023-05-08T12:42:41;101859.34;;;19.50;33.69
50484;BME280;36409;52.168;20.878;2023-05-08T12:45:20;101847.89;;;19.50;34.27
50484;BME280;36409;52.168;20.878;2023-05-08T12:47:50;101855.70;;;19.54;33.84
50484;BME280;36409;52.168;20.878;2023-05-08T12:50:21;101850.22;;;19.60;33.89
50484;BME280;36409;52.168;20.878;2023-05-08T12:52:50;101858.08;;;19.64;33.49
50484;BME280;36409;52.168;20.878;2023-05-08T12:55:24;101846.50;;;19.68;33.67
50484;BME280;36409;52.168;20.878;2023-05-08T12:57:58;101844.68;;;19.70;33.95
50484;BME280;36409;52.168;20.878;2023-05-08T13:00:33;101849.84;;;19.74;33.93
50484;BME280;36409;52.168;20.878;2023-05-08T13:03:04;101831.88;;;19.84;33.64
50484;BME280;36409;52.168;20.878;2023-05-08T13:05:39;101825.66;;;19.85;33.44
50484;BME280;36409;52.168;20.878;2023-05-08T13:08:09;101826.69;;;19.81;33.64
50484;BME280;36409;52.168;20.878;2023-05-08T13:10:50;101829.91;;;19.93;33.46
50484;BME280;36409;52.168;20.878;2023-05-08T13:13:22;101833.13;;;20.02;33.69
50484;BME280;36409;52.168;20.878;2023-05-08T13:15:54;101830.27;;;19.79;33.27
50484;BME280;36409;52.168;20.878;2023-05-08T13:18:25;101825.80;;;19.51;33.50
50484;BME280;36409;52.168;20.878;2023-05-08T13:20:55;101826.92;;;19.42;33.36
50484;BME280;36409;52.168;20.878;2023-05-08T13:23:24;101825.50;;;19.30;32.75